createdAt,value
2019-04-30T00:01:30.891Z,8.12
2019-04-30T00:04:08.894Z,7.97
2019-04-30T00:06:39.910Z,8.13
2019-04-30T00:09:15.140Z,8.28
2019-04-30T00:11:50.654Z,8.37
2019-04-30T00:14:19.394Z,8.30
2019-04-30T00:16:50.512Z,8.25
2019-04-30T00:19:21.627Z,8.21
2019-04-30T00:21:57.104Z,8.23
2019-04-30T00:24:25.995Z,8.02
2019-04-30T00:26:57.234Z,8.16
2019-04-30T00:29:31.022Z,8.07
2019-04-30T00:32:04.474Z,8.10
2019-04-30T00:34:35.879Z,7.89
2019-04-30T00:37:13.843Z,7.95
2019-04-30T00:39:44.367Z,7.89
2019-04-30T00:42:17.299Z,7.93
2019-04-30T00:44:45.709Z,7.97
2019-04-30T00:47:16.813Z,8.12
2019-04-30T00:49:52.165Z,7.99
2019-04-30T00:52:20.448Z,7.89
2019-04-30T00:54:51.443Z,8.04
2019-04-30T00:57:22.412Z,8.07
2019-04-30T00:59:54.902Z,8.03
2019-04-30T01:03:00.857Z,8.20
2019-04-30T01:05:32.566Z,8.15
2019-04-30T01:08:04.972Z,7.72
2019-04-30T01:10:36.814Z,7.98
2019-04-30T01:13:11.822Z,8.07
2019-04-30T01:15:43.905Z,7.70
2019-04-30T01:18:13.243Z,7.90
2019-04-30T01:20:44.380Z,8.15
2019-04-30T01:23:17.000Z,8.00
2019-04-30T01:25:51.312Z,8.03
2019-04-30T01:28:24.236Z,8.04
2019-04-30T01:30:58.754Z,7.99
2019-04-30T01:33:28.472Z,7.87
2019-04-30T01:35:59.912Z,7.99
2019-04-30T01:38:32.637Z,8.07
2019-04-30T01:41:04.075Z,7.84
2019-04-30T01:43:35.074Z,7.87
2019-04-30T01:46:09.418Z,7.93
2019-04-30T01:48:39.338Z,7.73
2019-04-30T01:51:13.323Z,7.74
2019-04-30T01:53:43.824Z,7.68
2019-04-30T01:56:41.443Z,7.87
2019-04-30T01:59:18.964Z,7.95
2019-04-30T02:01:51.069Z,7.96
2019-04-30T02:04:22.122Z,7.93
2019-04-30T02:06:53.107Z,7.90
2019-04-30T02:09:24.289Z,7.95
2019-04-30T02:11:55.353Z,7.94
2019-04-30T02:14:26.411Z,7.91
2019-04-30T02:16:59.014Z,7.83
2019-04-30T02:19:31.218Z,8.00
2019-04-30T02:22:02.333Z,8.01
2019-04-30T02:24:33.291Z,8.08
2019-04-30T02:27:04.328Z,7.99
2019-04-30T02:29:35.365Z,7.91
2019-04-30T02:32:06.512Z,7.84
2019-04-30T02:34:44.334Z,7.98
2019-04-30T02:37:21.157Z,8.20
2019-04-30T02:39:52.381Z,7.99
2019-04-30T02:42:24.181Z,7.71
2019-04-30T02:44:56.721Z,7.86
2019-04-30T02:47:30.400Z,7.94
2019-04-30T02:50:15.449Z,7.66
2019-04-30T02:52:40.546Z,7.91
2019-04-30T02:55:19.376Z,7.94
2019-04-30T02:57:49.971Z,7.87
2019-04-30T03:00:21.159Z,7.89
2019-04-30T03:02:52.124Z,8.08
2019-04-30T03:05:23.105Z,7.95
2019-04-30T03:07:54.145Z,7.78
2019-04-30T03:10:25.114Z,7.90
2019-04-30T03:12:56.102Z,7.87
2019-04-30T03:15:29.580Z,8.08
2019-04-30T03:18:12.974Z,8.18
2019-04-30T03:21:01.530Z,8.08
2019-04-30T03:23:32.507Z,8.08
2019-04-30T03:26:03.490Z,8.27
2019-04-30T03:28:34.464Z,7.97
2019-04-30T03:31:05.526Z,8.00
2019-04-30T03:33:36.504Z,7.50
2019-04-30T03:36:11.958Z,7.82
2019-04-30T03:38:42.727Z,8.02
2019-04-30T03:41:13.217Z,7.96
2019-04-30T03:43:44.340Z,8.04
2019-04-30T03:46:15.424Z,8.25
2019-04-30T03:48:46.688Z,8.37
2019-04-30T03:51:19.872Z,8.15
2019-04-30T03:53:51.160Z,8.25
2019-04-30T03:56:22.848Z,7.99
2019-04-30T03:58:54.268Z,8.18
2019-04-30T04:01:33.554Z,8.11
2019-04-30T04:04:10.948Z,8.12
2019-04-30T04:06:49.038Z,8.09
2019-04-30T04:09:24.851Z,7.91
2019-04-30T04:11:59.856Z,8.05
2019-04-30T04:14:30.353Z,8.21
2019-04-30T04:17:01.750Z,8.24
2019-04-30T04:19:32.836Z,8.10
2019-04-30T04:22:04.288Z,8.28
2019-04-30T04:24:35.498Z,8.34
2019-04-30T04:27:06.491Z,8.25
2019-04-30T04:31:00.394Z,8.10
2019-04-30T04:33:31.388Z,8.26
2019-04-30T04:36:02.510Z,7.79
2019-04-30T04:38:33.520Z,7.88
2019-04-30T04:41:04.575Z,7.96
2019-04-30T04:43:35.645Z,8.06
2019-04-30T04:46:09.086Z,8.18
2019-04-30T04:48:39.546Z,8.12
2019-04-30T04:51:27.164Z,8.15
2019-04-30T04:53:43.287Z,8.28
2019-04-30T04:56:14.270Z,8.02
2019-04-30T04:58:45.321Z,8.02
2019-04-30T05:01:16.387Z,8.21
2019-04-30T05:03:48.965Z,8.04
2019-04-30T05:06:21.935Z,8.09
2019-04-30T05:08:52.909Z,8.34
2019-04-30T05:11:23.908Z,8.26
2019-04-30T05:13:54.866Z,8.33
2019-04-30T05:16:25.909Z,8.28
2019-04-30T05:18:58.604Z,8.30
2019-04-30T05:21:41.400Z,8.17
2019-04-30T05:24:02.311Z,8.55
2019-04-30T05:26:33.303Z,8.46
2019-04-30T05:29:04.337Z,8.37
2019-04-30T05:31:35.540Z,8.28
2019-04-30T05:34:10.075Z,8.56
2019-04-30T05:36:39.302Z,8.53
2019-04-30T05:39:10.265Z,8.13
2019-04-30T05:41:41.332Z,8.10
2019-04-30T05:44:12.289Z,8.26
2019-04-30T05:46:43.259Z,8.04
2019-04-30T05:49:14.227Z,7.95
2019-04-30T05:51:53.593Z,8.05
2019-04-30T05:54:19.011Z,7.83
2019-04-30T05:56:50.001Z,7.80
2019-04-30T05:59:22.110Z,7.79
2019-04-30T06:01:53.172Z,8.02
2019-04-30T06:04:24.246Z,8.05
2019-04-30T06:06:55.208Z,7.82
2019-04-30T06:09:35.446Z,7.57
2019-04-30T06:12:22.267Z,7.79
2019-04-30T06:15:05.555Z,7.81
2019-04-30T06:17:36.944Z,7.85
2019-04-30T06:20:17.759Z,7.79
2019-04-30T06:22:40.904Z,7.85
2019-04-30T06:25:12.349Z,7.73
2019-04-30T06:27:43.862Z,7.85
2019-04-30T06:30:15.823Z,7.92
2019-04-30T06:32:47.272Z,7.81
2019-04-30T06:35:19.347Z,8.11
2019-04-30T06:37:50.687Z,8.00
2019-04-30T06:40:21.991Z,8.23
2019-04-30T06:42:53.844Z,8.36
2019-04-30T06:45:25.175Z,8.08
2019-04-30T06:47:58.706Z,8.17
2019-04-30T06:50:30.099Z,8.18
2019-04-30T06:53:02.210Z,8.25
2019-04-30T06:55:33.178Z,8.37
2019-04-30T06:58:14.742Z,8.30
2019-04-30T07:00:39.970Z,8.19
2019-04-30T07:03:11.414Z,8.08
2019-04-30T07:05:42.463Z,8.09
2019-04-30T07:08:39.582Z,8.21
2019-04-30T07:11:21.833Z,8.16
2019-04-30T07:13:53.110Z,8.30
2019-04-30T07:16:24.228Z,8.02
2019-04-30T07:18:55.278Z,8.10
2019-04-30T07:21:26.257Z,8.38
2019-04-30T07:23:57.249Z,8.48
2019-04-30T07:26:28.964Z,8.54
2019-04-30T07:29:02.567Z,8.33
2019-04-30T07:31:32.804Z,8.43
2019-04-30T07:34:03.805Z,8.30
2019-04-30T07:36:45.170Z,8.41
2019-04-30T07:39:09.998Z,8.34
2019-04-30T07:41:41.115Z,8.26
2019-04-30T07:44:29.427Z,8.36
2019-04-30T07:46:45.476Z,8.44
2019-04-30T07:49:16.638Z,8.45
2019-04-30T07:51:49.087Z,8.44
2019-04-30T07:54:20.399Z,8.44
2019-04-30T07:56:51.518Z,8.36
2019-04-30T07:59:22.536Z,8.28
2019-04-30T08:02:04.093Z,8.19
2019-04-30T08:04:43.975Z,8.71
2019-04-30T08:07:15.187Z,8.82
2019-04-30T08:09:46.281Z,8.47
2019-04-30T08:12:28.206Z,8.53
2019-04-30T08:14:50.122Z,8.88
2019-04-30T08:17:21.080Z,8.59
2019-04-30T08:19:52.062Z,8.72
2019-04-30T08:22:23.038Z,8.82
2019-04-30T08:24:54.031Z,8.93
2019-04-30T08:27:25.021Z,8.83
2019-04-30T08:29:55.993Z,9.08
2019-04-30T08:32:28.887Z,8.79
2019-04-30T08:35:01.167Z,8.84
2019-04-30T08:37:32.258Z,8.41
2019-04-30T08:40:03.624Z,8.58
2019-04-30T08:42:37.715Z,8.40
2019-04-30T08:45:09.477Z,8.68
2019-04-30T08:47:40.791Z,8.80
2019-04-30T08:50:12.796Z,8.87
2019-04-30T08:52:43.982Z,8.87
2019-04-30T08:55:17.102Z,8.82
2019-04-30T08:57:50.024Z,8.75
2019-04-30T09:00:21.853Z,8.67
2019-04-30T09:02:52.864Z,8.61
2019-04-30T09:05:30.604Z,8.54
2019-04-30T09:08:01.828Z,8.78
2019-04-30T09:10:32.873Z,8.68
2019-04-30T09:13:04.087Z,8.95
2019-04-30T09:15:35.203Z,8.94
2019-04-30T09:18:10.260Z,9.13
2019-04-30T09:20:40.902Z,9.33
2019-04-30T09:23:12.084Z,9.21
2019-04-30T09:25:43.115Z,9.08
2019-04-30T09:28:14.168Z,9.13
2019-04-30T09:30:45.333Z,8.96
2019-04-30T09:33:16.312Z,9.11
2019-04-30T09:35:49.399Z,9.15
2019-04-30T09:38:20.578Z,9.41
2019-04-30T09:40:51.555Z,9.48
2019-04-30T09:43:22.555Z,9.15
2019-04-30T09:45:53.680Z,9.21
2019-04-30T09:48:24.721Z,8.79
2019-04-30T09:50:55.990Z,8.99
2019-04-30T09:53:29.392Z,9.10
2019-04-30T09:56:00.066Z,9.37
2019-04-30T09:58:31.213Z,9.16
2019-04-30T10:01:02.362Z,9.19
2019-04-30T10:03:34.267Z,9.25
2019-04-30T10:06:06.102Z,9.11
2019-04-30T10:08:47.986Z,9.34
2019-04-30T10:11:16.285Z,9.07
2019-04-30T10:13:47.338Z,9.38
2019-04-30T10:16:39.654Z,9.63
2019-04-30T10:19:10.734Z,9.40
2019-04-30T10:21:41.792Z,9.52
2019-04-30T10:24:15.611Z,9.35
2019-04-30T10:26:45.714Z,9.66
2019-04-30T10:29:18.530Z,9.73
2019-04-30T10:31:49.826Z,9.63
2019-04-30T10:34:20.908Z,9.66
2019-04-30T10:36:52.182Z,9.89
2019-04-30T10:39:23.796Z,9.59
2019-04-30T10:41:55.137Z,9.70
2019-04-30T10:44:26.213Z,9.59
2019-04-30T10:46:59.217Z,10.13
2019-04-30T10:49:29.971Z,9.82
2019-04-30T10:52:01.251Z,9.98
2019-04-30T10:54:32.639Z,10.15
2019-04-30T10:57:03.748Z,10.21
2019-04-30T10:59:34.786Z,10.26
2019-04-30T11:02:06.151Z,10.28
2019-04-30T11:04:37.214Z,10.41
2019-04-30T11:07:08.834Z,10.48
2019-04-30T11:09:40.045Z,10.65
2019-04-30T11:12:11.228Z,11.18
2019-04-30T11:14:42.565Z,11.46
2019-04-30T11:17:13.778Z,11.59
2019-04-30T11:19:45.105Z,11.46
2019-04-30T11:22:16.386Z,11.64
2019-04-30T11:24:58.754Z,11.58
2019-04-30T11:27:21.414Z,11.72
2019-04-30T11:29:53.016Z,11.98
2019-04-30T11:32:25.169Z,12.18
2019-04-30T11:34:56.302Z,11.89
2019-04-30T11:37:27.470Z,11.93
2019-04-30T11:39:58.595Z,12.31
2019-04-30T11:42:32.214Z,12.22
2019-04-30T11:45:02.894Z,12.29
2019-04-30T11:47:35.044Z,12.66
2019-04-30T11:50:13.364Z,12.76
2019-04-30T11:52:44.709Z,12.54
2019-04-30T11:55:16.123Z,13.05
2019-04-30T11:57:49.405Z,12.58
2019-04-30T12:00:27.180Z,12.66
2019-04-30T12:02:59.347Z,12.25
2019-04-30T12:05:30.560Z,12.42
2019-04-30T12:08:16.272Z,12.55
2019-04-30T12:11:15.396Z,12.34
2019-04-30T12:13:46.524Z,12.58
2019-04-30T12:16:18.609Z,12.40
2019-04-30T12:18:49.677Z,12.55
2019-04-30T12:21:20.672Z,12.52
2019-04-30T12:23:51.679Z,12.60
2019-04-30T12:26:22.720Z,12.80
2019-04-30T12:28:53.741Z,13.24
2019-04-30T12:31:24.749Z,12.79
2019-04-30T12:33:55.753Z,12.65
2019-04-30T12:36:28.790Z,12.78
2019-04-30T12:39:00.531Z,12.79
2019-04-30T12:41:33.143Z,12.57
2019-04-30T12:44:04.223Z,13.11
2019-04-30T12:46:35.287Z,13.27
2019-04-30T12:49:11.555Z,13.51
2019-04-30T12:52:05.673Z,13.04
2019-04-30T12:54:53.795Z,12.97
2019-04-30T12:57:39.138Z,12.98
2019-04-30T13:00:12.133Z,12.68
2019-04-30T13:02:43.141Z,12.90
2019-04-30T13:05:14.719Z,12.70
2019-04-30T13:07:46.092Z,12.79
2019-04-30T13:10:18.395Z,13.01
2019-04-30T13:12:50.282Z,13.22
2019-04-30T13:15:21.987Z,12.35
2019-04-30T13:17:52.956Z,12.53
2019-04-30T13:20:25.343Z,12.47
2019-04-30T13:22:56.400Z,12.81
2019-04-30T13:25:34.792Z,12.66
2019-04-30T13:28:05.069Z,12.56
2019-04-30T13:30:36.233Z,12.80
2019-04-30T13:33:31.462Z,12.84
2019-04-30T13:36:02.449Z,12.99
2019-04-30T13:39:04.703Z,13.12
2019-04-30T13:42:01.047Z,13.32
2019-04-30T13:44:36.011Z,13.54
2019-04-30T13:47:10.672Z,13.30
2019-04-30T13:49:40.110Z,13.46
2019-04-30T13:52:11.156Z,13.38
2019-04-30T13:54:42.177Z,13.07
2019-04-30T13:57:13.253Z,13.26
2019-04-30T13:59:44.298Z,13.37
2019-04-30T14:02:15.507Z,13.56
2019-04-30T14:04:53.344Z,13.75
2019-04-30T14:07:39.951Z,13.07
2019-04-30T14:10:11.108Z,13.15
2019-04-30T14:12:47.473Z,13.12
2019-04-30T14:15:19.271Z,13.01
2019-04-30T14:17:50.568Z,13.06
2019-04-30T14:20:22.317Z,12.84
2019-04-30T14:22:53.321Z,12.94
2019-04-30T14:25:24.381Z,13.05
2019-04-30T14:27:55.612Z,13.21
2019-04-30T14:30:29.141Z,13.10
2019-04-30T14:32:59.913Z,13.31
2019-04-30T14:35:31.083Z,12.84
2019-04-30T14:38:02.096Z,12.92
2019-04-30T14:40:33.609Z,12.93
2019-04-30T14:43:30.867Z,12.89
2019-04-30T14:46:30.762Z,12.71
2019-04-30T14:49:23.198Z,12.79
2019-04-30T14:51:54.755Z,13.21
2019-04-30T14:54:39.262Z,12.89
2019-04-30T14:57:32.221Z,12.89
2019-04-30T15:00:23.249Z,12.96
2019-04-30T15:02:59.566Z,12.70
2019-04-30T15:05:38.859Z,12.59
2019-04-30T15:08:03.433Z,12.62
2019-04-30T15:10:34.685Z,12.51
2019-04-30T15:14:11.377Z,12.61
2019-04-30T15:16:42.501Z,12.82
2019-04-30T15:19:13.569Z,12.86
2019-04-30T15:21:45.251Z,12.93
2019-04-30T15:24:26.962Z,12.85
2019-04-30T15:26:58.223Z,12.86
2019-04-30T15:29:29.350Z,12.56
2019-04-30T15:32:00.514Z,12.68
2019-04-30T15:34:31.555Z,12.67
2019-04-30T15:37:02.659Z,12.60
2019-04-30T15:39:52.360Z,12.40
2019-04-30T15:42:24.476Z,12.75
2019-04-30T15:44:55.772Z,12.81
2019-04-30T15:47:28.797Z,12.62
2019-04-30T15:50:02.179Z,12.64
2019-04-30T15:52:32.542Z,12.71
2019-04-30T15:55:03.672Z,12.63
2019-04-30T15:57:49.435Z,12.41
2019-04-30T16:00:21.101Z,12.66
2019-04-30T16:03:00.633Z,12.67
2019-04-30T16:05:34.318Z,12.84
2019-04-30T16:08:23.122Z,12.98
2019-04-30T16:11:10.570Z,12.56
2019-04-30T16:14:10.723Z,12.88
2019-04-30T16:16:44.430Z,12.75
2019-04-30T16:19:15.396Z,12.75
2019-04-30T16:21:46.442Z,12.92
2019-04-30T16:24:18.736Z,12.88
2019-04-30T16:26:52.713Z,13.10
2019-04-30T16:29:23.031Z,13.14
2019-04-30T16:31:54.475Z,12.94
2019-04-30T16:34:25.545Z,13.03
2019-04-30T16:36:56.627Z,13.11
2019-04-30T16:39:28.821Z,13.05
2019-04-30T16:41:59.908Z,13.17
2019-04-30T16:44:30.959Z,13.02
2019-04-30T16:47:13.153Z,13.08
2019-04-30T16:49:34.792Z,12.71
2019-04-30T16:52:06.100Z,13.03
2019-04-30T16:54:37.179Z,12.99
2019-04-30T16:57:10.300Z,13.21
2019-04-30T16:59:42.327Z,13.03
2019-04-30T17:02:14.540Z,13.13
2019-04-30T17:04:51.083Z,13.03
2019-04-30T17:07:44.884Z,13.18
2019-04-30T17:10:22.009Z,13.08
2019-04-30T17:13:00.027Z,13.15
2019-04-30T17:15:31.983Z,13.09
2019-04-30T17:18:03.229Z,12.98
2019-04-30T17:20:34.265Z,12.92
2019-04-30T17:23:05.246Z,12.89
2019-04-30T17:25:36.283Z,12.91
2019-04-30T17:28:09.190Z,12.68
2019-04-30T17:30:40.143Z,12.90
2019-04-30T17:33:11.154Z,12.74
2019-04-30T17:35:42.169Z,12.46
2019-04-30T17:38:13.544Z,12.61
2019-04-30T17:40:44.540Z,12.40
2019-04-30T17:43:15.539Z,12.68
2019-04-30T17:45:49.313Z,12.67
2019-04-30T17:48:20.379Z,12.54
2019-04-30T17:50:51.377Z,12.26
2019-04-30T17:53:22.505Z,12.44
2019-04-30T17:55:53.543Z,12.36
2019-04-30T17:58:24.574Z,12.47
2019-04-30T18:00:57.341Z,12.37
2019-04-30T18:03:28.955Z,12.44
2019-04-30T18:05:59.951Z,12.44
2019-04-30T18:08:31.025Z,12.18
2019-04-30T18:11:01.997Z,12.24
2019-04-30T18:13:33.072Z,12.40
2019-04-30T18:16:04.223Z,12.12
2019-04-30T18:18:42.724Z,12.04
2019-04-30T18:21:23.118Z,11.86
2019-04-30T18:24:12.023Z,11.98
2019-04-30T18:26:49.257Z,12.01
2019-04-30T18:29:20.264Z,11.83
2019-04-30T18:31:51.245Z,11.85
2019-04-30T18:34:22.264Z,11.64
2019-04-30T18:36:53.383Z,11.67
2019-04-30T18:39:24.346Z,11.79
2019-04-30T18:41:55.443Z,11.76
2019-04-30T18:44:26.440Z,11.81
2019-04-30T18:46:59.066Z,11.60
2019-04-30T18:49:30.090Z,11.58
2019-04-30T18:52:01.171Z,11.66
2019-04-30T18:54:32.285Z,11.68
2019-04-30T18:57:03.438Z,11.72
2019-04-30T18:59:34.506Z,11.82
2019-04-30T19:02:07.282Z,11.80
2019-04-30T19:04:40.601Z,11.73
2019-04-30T19:07:25.932Z,11.68
2019-04-30T19:10:34.099Z,11.49
2019-04-30T19:17:02.870Z,11.59
2019-04-30T19:19:50.909Z,11.59
2019-04-30T19:22:21.902Z,11.27
2019-04-30T19:24:58.562Z,11.23
2019-04-30T19:27:25.849Z,11.45
2019-04-30T19:29:56.832Z,11.49
2019-04-30T19:32:30.313Z,11.30
2019-04-30T19:35:00.764Z,11.46
2019-04-30T19:37:33.064Z,11.52
2019-04-30T19:40:05.575Z,11.43
2019-04-30T19:42:36.572Z,11.64
2019-04-30T19:45:10.289Z,11.50
2019-04-30T19:47:40.715Z,11.48
2019-04-30T19:50:14.123Z,11.60
2019-04-30T19:52:44.551Z,11.56
2019-04-30T19:55:15.764Z,11.44
2019-04-30T19:57:48.401Z,11.53
2019-04-30T20:00:19.777Z,11.43
2019-04-30T20:02:50.744Z,11.68
2019-04-30T20:05:21.757Z,11.48
2019-04-30T20:07:52.756Z,11.18
2019-04-30T20:10:23.770Z,11.47
2019-04-30T20:12:54.750Z,11.14
2019-04-30T20:15:26.858Z,11.25
2019-04-30T20:17:58.705Z,11.24
2019-04-30T20:20:30.662Z,11.32
2019-04-30T20:23:01.695Z,11.52
2019-04-30T20:25:32.845Z,11.73
2019-04-30T20:28:03.898Z,11.50
2019-04-30T20:30:34.917Z,11.50
2019-04-30T20:33:06.099Z,11.41
2019-04-30T20:35:39.019Z,11.39
2019-04-30T20:38:38.256Z,11.54
2019-04-30T20:41:10.065Z,11.21
2019-04-30T20:43:41.088Z,11.21
2019-04-30T20:46:12.092Z,11.22
2019-04-30T20:48:43.066Z,11.25
2019-04-30T20:51:14.069Z,11.40
2019-04-30T20:53:45.064Z,11.12
2019-04-30T20:56:16.086Z,11.32
2019-04-30T20:58:57.254Z,11.40
2019-04-30T21:01:19.782Z,11.44
2019-04-30T21:03:50.773Z,11.31
2019-04-30T21:06:21.783Z,11.22
2019-04-30T21:08:52.762Z,11.37
2019-04-30T21:11:23.759Z,11.11
2019-04-30T21:13:54.742Z,11.30
2019-04-30T21:16:25.807Z,11.36
2019-04-30T21:18:56.773Z,11.32
2019-04-30T21:21:28.802Z,11.22
2019-04-30T21:23:59.931Z,11.20
2019-04-30T21:26:30.963Z,11.32
2019-04-30T21:29:11.158Z,11.42
2019-04-30T21:31:41.169Z,11.26
2019-04-30T21:34:21.025Z,10.86
2019-04-30T21:36:52.171Z,11.10
2019-04-30T21:39:23.189Z,11.01
2019-04-30T21:41:54.202Z,11.01
2019-04-30T21:44:25.212Z,11.10
2019-04-30T21:46:57.335Z,11.03
2019-04-30T21:49:28.354Z,11.02
2019-04-30T21:51:59.377Z,11.09
2019-04-30T21:54:30.616Z,10.96
2019-04-30T21:57:01.600Z,10.96
2019-04-30T21:59:32.604Z,11.17
2019-04-30T22:02:03.689Z,11.10
2019-04-30T22:04:34.719Z,11.05
2019-04-30T22:07:05.817Z,10.85
2019-04-30T22:09:36.813Z,10.93
2019-04-30T22:12:09.218Z,10.89
2019-04-30T22:14:40.412Z,10.90
2019-04-30T22:17:11.448Z,10.66
2019-04-30T22:19:42.483Z,10.54
2019-04-30T22:22:13.553Z,10.84
2019-04-30T22:24:44.648Z,10.75
2019-04-30T22:27:17.484Z,10.73
2019-04-30T22:29:48.487Z,10.72
2019-04-30T22:32:19.469Z,10.67
2019-04-30T22:34:50.457Z,10.80
2019-04-30T22:37:21.435Z,10.79
2019-04-30T22:39:59.389Z,10.77
2019-04-30T22:42:32.991Z,10.78
2019-04-30T22:45:07.692Z,10.87
2019-04-30T22:47:38.659Z,10.95
2019-04-30T22:50:10.479Z,10.82
2019-04-30T22:52:41.494Z,10.88
2019-04-30T22:55:12.589Z,10.90
2019-04-30T22:57:43.807Z,10.70
2019-04-30T23:00:22.525Z,10.52
2019-04-30T23:02:59.353Z,10.55
2019-04-30T23:05:30.533Z,10.71
2019-04-30T23:08:01.505Z,10.58
2019-04-30T23:10:32.558Z,10.55
2019-04-30T23:13:03.607Z,10.51
2019-04-30T23:15:34.902Z,10.51
2019-04-30T23:18:06.228Z,10.53
2019-04-30T23:20:37.282Z,10.47
2019-04-30T23:23:08.248Z,10.33
2019-04-30T23:25:39.323Z,10.24
2019-04-30T23:28:10.312Z,10.27
2019-04-30T23:30:41.295Z,9.83
2019-04-30T23:33:12.327Z,10.14
2019-04-30T23:35:43.320Z,9.88
2019-04-30T23:38:14.449Z,10.02
2019-04-30T23:40:51.679Z,10.01
2019-04-30T23:43:22.823Z,9.81
2019-04-30T23:45:53.881Z,9.94
2019-04-30T23:48:24.860Z,9.84
2019-04-30T23:50:55.849Z,9.89
2019-04-30T23:53:26.844Z,9.50
2019-04-30T23:55:57.895Z,9.75
2019-04-30T23:58:28.874Z,9.59
